createdAt,value
2023-04-16T00:01:38.551Z,22.76
2023-04-16T00:04:05.626Z,22.85
2023-04-16T00:06:32.746Z,22.98
2023-04-16T00:08:59.623Z,23.00
2023-04-16T00:11:26.389Z,21.84
2023-04-16T00:13:53.162Z,19.40
2023-04-16T00:16:20.481Z,18.26
2023-04-16T00:18:47.293Z,19.89
2023-04-16T00:21:14.056Z,20.93
2023-04-16T00:23:40.814Z,21.47
2023-04-16T00:26:07.576Z,21.60
2023-04-16T00:28:34.364Z,21.84
2023-04-16T00:31:01.197Z,21.96
2023-04-16T00:33:29.957Z,22.01
2023-04-16T00:35:56.717Z,22.22
2023-04-16T00:38:23.737Z,22.21
2023-04-16T00:40:50.745Z,22.20
2023-04-16T00:43:17.494Z,22.46
2023-04-16T00:45:44.239Z,22.47
2023-04-16T00:48:11.030Z,22.52
2023-04-16T00:50:37.770Z,22.55
2023-04-16T00:53:04.498Z,22.62
2023-04-16T00:55:31.333Z,22.61
2023-04-16T00:57:58.076Z,22.73
2023-04-16T01:00:26.100Z,22.89
2023-04-16T01:02:53.028Z,22.81
2023-04-16T01:05:19.871Z,22.84
2023-04-16T01:07:46.614Z,22.86
2023-04-16T01:10:13.383Z,22.92
2023-04-16T01:12:40.130Z,22.94
2023-04-16T01:15:06.891Z,22.83
2023-04-16T01:17:33.699Z,19.80
2023-04-16T01:20:00.495Z,18.43
2023-04-16T01:22:27.305Z,19.67
2023-04-16T01:24:54.064Z,20.63
2023-04-16T01:27:21.071Z,21.23
2023-04-16T01:29:47.823Z,21.63
2023-04-16T01:32:14.571Z,21.85
2023-04-16T01:34:41.372Z,21.92
2023-04-16T01:37:08.202Z,21.99
2023-04-16T01:39:34.948Z,22.13
2023-04-16T01:42:02.212Z,22.29
2023-04-16T01:44:29.087Z,22.36
2023-04-16T01:46:55.984Z,22.43
2023-04-16T01:49:22.767Z,22.49
2023-04-16T01:51:49.520Z,22.47
2023-04-16T01:54:16.380Z,22.59
2023-04-16T01:56:43.233Z,22.68
2023-04-16T01:59:10.115Z,22.71
2023-04-16T02:01:37.291Z,22.73
2023-04-16T02:04:04.242Z,22.83
2023-04-16T02:06:31.505Z,22.81
2023-04-16T02:08:58.270Z,22.83
2023-04-16T02:11:25.215Z,22.86
2023-04-16T02:13:51.959Z,22.90
2023-04-16T02:16:18.757Z,21.99
2023-04-16T02:18:45.763Z,19.53
2023-04-16T02:21:12.570Z,18.28
2023-04-16T02:23:40.960Z,19.78
2023-04-16T02:26:07.796Z,20.65
2023-04-16T02:28:34.600Z,21.29
2023-04-16T02:31:01.401Z,21.59
2023-04-16T02:33:28.603Z,21.76
2023-04-16T02:35:55.369Z,21.89
2023-04-16T02:38:22.173Z,22.01
2023-04-16T02:40:48.943Z,22.16
2023-04-16T02:43:15.692Z,22.22
2023-04-16T02:45:42.601Z,22.38
2023-04-16T02:48:09.905Z,22.39
2023-04-16T02:50:36.698Z,22.48
2023-04-16T02:53:04.249Z,22.55
2023-04-16T02:55:31.027Z,22.62
2023-04-16T02:57:57.822Z,22.65
2023-04-16T03:00:24.626Z,22.70
2023-04-16T03:02:51.589Z,22.80
2023-04-16T03:05:18.467Z,22.90
2023-04-16T03:07:45.303Z,22.93
2023-04-16T03:10:13.256Z,22.86
2023-04-16T03:12:40.128Z,22.87
2023-04-16T03:15:06.914Z,22.34
2023-04-16T03:17:33.679Z,19.80
2023-04-16T03:20:00.471Z,18.57
2023-04-16T03:22:27.253Z,19.88
2023-04-16T03:24:54.100Z,20.67
2023-04-16T03:27:20.927Z,21.29
2023-04-16T03:29:47.727Z,21.68
2023-04-16T03:32:14.532Z,21.80
2023-04-16T03:34:41.265Z,21.95
2023-04-16T03:37:11.705Z,22.13
2023-04-16T03:39:38.461Z,22.19
2023-04-16T03:42:05.470Z,22.19
2023-04-16T03:44:32.241Z,22.37
2023-04-16T03:46:59.108Z,22.46
2023-04-16T03:49:25.975Z,22.52
2023-04-16T03:51:52.753Z,22.65
2023-04-16T03:54:21.298Z,22.74
2023-04-16T03:56:51.879Z,22.64
2023-04-16T03:59:18.647Z,22.75
2023-04-16T04:01:45.458Z,22.76
2023-04-16T04:04:12.396Z,22.89
2023-04-16T04:06:39.351Z,22.81
2023-04-16T04:09:06.227Z,22.94
2023-04-16T04:11:32.991Z,22.43
2023-04-16T04:13:59.755Z,19.61
2023-04-16T04:16:26.532Z,18.52
2023-04-16T04:18:53.415Z,19.85
2023-04-16T04:21:20.405Z,20.74
2023-04-16T04:23:47.214Z,21.22
2023-04-16T04:26:14.021Z,21.71
2023-04-16T04:28:40.882Z,21.81
2023-04-16T04:31:07.632Z,22.07
2023-04-16T04:33:34.420Z,22.05
2023-04-16T04:36:01.475Z,22.19
2023-04-16T04:38:28.487Z,22.22
2023-04-16T04:40:55.343Z,22.38
2023-04-16T04:43:22.186Z,22.40
2023-04-16T04:45:49.319Z,22.55
2023-04-16T04:48:16.326Z,22.48
2023-04-16T04:50:43.212Z,22.67
2023-04-16T04:53:10.554Z,22.62
2023-04-16T04:55:37.305Z,22.70
2023-04-16T04:58:04.478Z,22.85
2023-04-16T05:00:31.259Z,22.80
2023-04-16T05:02:58.163Z,22.82
2023-04-16T05:05:25.092Z,22.89
2023-04-16T05:07:51.896Z,23.09
2023-04-16T05:10:18.730Z,21.00
2023-04-16T05:12:47.154Z,19.02
2023-04-16T05:15:15.077Z,18.87
2023-04-16T05:17:41.879Z,20.12
2023-04-16T05:20:08.793Z,20.95
2023-04-16T05:22:35.794Z,21.56
2023-04-16T05:25:02.531Z,21.64
2023-04-16T05:27:29.305Z,21.88
2023-04-16T05:29:56.050Z,22.03
2023-04-16T05:32:22.997Z,22.18
2023-04-16T05:34:49.766Z,22.21
2023-04-16T05:37:16.594Z,22.17
2023-04-16T05:39:43.400Z,22.40
2023-04-16T05:42:10.292Z,22.53
2023-04-16T05:44:37.131Z,22.44
2023-04-16T05:47:03.889Z,22.52
2023-04-16T05:49:30.656Z,22.61
2023-04-16T05:51:57.401Z,22.78
2023-04-16T05:54:24.244Z,22.70
2023-04-16T05:56:50.999Z,22.80
2023-04-16T05:59:17.734Z,22.82
2023-04-16T06:01:44.476Z,22.81
2023-04-16T06:04:11.364Z,22.87
2023-04-16T06:06:38.356Z,22.99
2023-04-16T06:09:05.189Z,22.52
2023-04-16T06:11:32.394Z,19.86
2023-04-16T06:13:59.662Z,18.38
2023-04-16T06:16:26.520Z,19.67
2023-04-16T06:18:53.349Z,20.61
2023-04-16T06:21:20.218Z,21.28
2023-04-16T06:23:46.944Z,21.77
2023-04-16T06:26:13.743Z,21.88
2023-04-16T06:28:40.588Z,21.87
2023-04-16T06:31:07.363Z,22.07
2023-04-16T06:33:34.146Z,22.18
2023-04-16T06:36:00.875Z,22.27
2023-04-16T06:38:27.625Z,22.32
2023-04-16T06:40:54.444Z,22.43
2023-04-16T06:43:21.544Z,22.55
2023-04-16T06:45:48.375Z,22.67
2023-04-16T06:48:15.366Z,22.71
2023-04-16T06:50:42.128Z,22.65
2023-04-16T06:53:08.909Z,22.81
2023-04-16T06:55:35.778Z,22.74
2023-04-16T06:58:02.504Z,22.84
2023-04-16T07:00:29.241Z,22.87
2023-04-16T07:02:58.419Z,22.83
2023-04-16T07:05:25.495Z,23.03
2023-04-16T07:07:52.237Z,22.17
2023-04-16T07:10:19.017Z,19.57
2023-04-16T07:12:45.751Z,18.42
2023-04-16T07:15:12.559Z,19.80
2023-04-16T07:17:39.312Z,20.75
2023-04-16T07:20:06.100Z,21.39
2023-04-16T07:22:32.845Z,21.72
2023-04-16T07:24:59.652Z,21.82
2023-04-16T07:27:26.399Z,22.03
2023-04-16T07:29:54.651Z,21.98
2023-04-16T07:32:22.333Z,22.15
2023-04-16T07:34:49.132Z,22.33
2023-04-16T07:37:15.877Z,22.33
2023-04-16T07:39:42.629Z,22.43
2023-04-16T07:42:09.404Z,22.54
2023-04-16T07:44:36.192Z,22.57
2023-04-16T07:47:05.279Z,22.60
2023-04-16T07:49:32.496Z,22.78
2023-04-16T07:51:59.246Z,22.82
2023-04-16T07:54:27.813Z,22.81
2023-04-16T07:56:55.912Z,22.87
2023-04-16T07:59:24.380Z,22.92
2023-04-16T08:01:51.429Z,22.88
2023-04-16T08:04:24.281Z,20.03
2023-04-16T08:06:51.488Z,18.38
2023-04-16T08:09:18.309Z,19.44
2023-04-16T08:11:45.122Z,20.44
2023-04-16T08:14:11.867Z,21.09
2023-04-16T08:16:40.402Z,21.56
2023-04-16T08:19:07.268Z,21.74
2023-04-16T08:21:34.181Z,21.87
2023-04-16T08:24:00.947Z,22.05
2023-04-16T08:26:27.746Z,22.23
2023-04-16T08:28:54.558Z,22.18
2023-04-16T08:31:21.409Z,22.28
2023-04-16T08:33:48.168Z,22.30
2023-04-16T08:36:14.902Z,22.47
2023-04-16T08:38:41.695Z,22.47
2023-04-16T08:41:08.432Z,22.59
2023-04-16T08:43:35.196Z,22.67
2023-04-16T08:46:01.986Z,22.75
2023-04-16T08:48:28.730Z,22.70
2023-04-16T08:50:55.748Z,22.88
2023-04-16T08:53:22.927Z,22.75
2023-04-16T08:55:50.284Z,22.90
2023-04-16T08:58:17.019Z,22.23
2023-04-16T09:00:43.851Z,19.46
2023-04-16T09:03:11.177Z,18.12
2023-04-16T09:05:38.034Z,19.79
2023-04-16T09:08:04.804Z,20.59
2023-04-16T09:10:31.568Z,21.07
2023-04-16T09:12:58.457Z,21.48
2023-04-16T09:15:25.695Z,21.79
2023-04-16T09:17:52.862Z,21.96
2023-04-16T09:20:19.660Z,21.98
2023-04-16T09:22:46.504Z,22.04
2023-04-16T09:25:13.235Z,22.10
2023-04-16T09:27:40.157Z,22.18
2023-04-16T09:30:06.925Z,22.26
2023-04-16T09:32:33.745Z,22.41
2023-04-16T09:35:00.679Z,22.50
2023-04-16T09:37:29.396Z,22.58
2023-04-16T09:39:56.159Z,22.63
2023-04-16T09:42:23.146Z,22.70
2023-04-16T09:44:49.915Z,22.82
2023-04-16T09:47:16.867Z,22.79
2023-04-16T09:49:43.638Z,22.79
2023-04-16T09:52:10.419Z,22.97
2023-04-16T09:54:37.154Z,22.22
2023-04-16T09:57:03.908Z,19.38
2023-04-16T09:59:33.767Z,18.28
2023-04-16T10:02:14.374Z,19.70
2023-04-16T10:04:42.755Z,20.74
2023-04-16T10:07:09.524Z,21.32
2023-04-16T10:09:36.259Z,21.59
2023-04-16T10:12:03.046Z,21.72
2023-04-16T10:14:29.817Z,21.90
2023-04-16T10:16:56.645Z,22.06
2023-04-16T10:19:23.507Z,22.17
2023-04-16T10:21:50.254Z,22.17
2023-04-16T10:24:17.873Z,22.38
2023-04-16T10:26:44.660Z,22.45
2023-04-16T10:29:11.572Z,22.41
2023-04-16T10:31:38.436Z,22.51
2023-04-16T10:34:05.200Z,22.64
2023-04-16T10:36:31.951Z,22.65
2023-04-16T10:38:58.758Z,22.83
2023-04-16T10:41:25.595Z,22.71
2023-04-16T10:43:52.401Z,22.85
2023-04-16T10:46:19.299Z,22.86
2023-04-16T10:48:50.352Z,22.80
2023-04-16T10:51:17.762Z,20.14
2023-04-16T10:53:44.524Z,18.81
2023-04-16T10:56:14.138Z,19.70
2023-04-16T10:58:40.884Z,20.58
2023-04-16T11:01:07.621Z,21.18
2023-04-16T11:03:34.517Z,21.54
2023-04-16T11:06:01.312Z,21.75
2023-04-16T11:08:28.050Z,21.92
2023-04-16T11:10:54.866Z,22.01
2023-04-16T11:13:21.678Z,22.13
2023-04-16T11:15:48.433Z,22.16
2023-04-16T11:18:15.434Z,22.32
2023-04-16T11:20:42.195Z,22.43
2023-04-16T11:23:08.942Z,22.52
2023-04-16T11:25:35.742Z,22.56
2023-04-16T11:28:02.575Z,22.63
2023-04-16T11:30:29.385Z,22.68
2023-04-16T11:32:56.395Z,22.79
2023-04-16T11:35:23.236Z,22.81
2023-04-16T11:37:49.992Z,22.74
2023-04-16T11:40:16.836Z,22.85
2023-04-16T11:42:44.161Z,22.91
2023-04-16T11:45:11.138Z,22.75
2023-04-16T11:47:37.982Z,20.49
2023-04-16T11:50:04.806Z,19.18
2023-04-16T11:52:31.589Z,19.96
2023-04-16T11:54:58.605Z,20.52
2023-04-16T11:57:25.584Z,21.49
2023-04-16T12:00:01.743Z,21.61
2023-04-16T12:02:30.404Z,21.86
2023-04-16T12:04:57.293Z,22.02
2023-04-16T12:07:24.127Z,22.13
2023-04-16T12:09:50.973Z,22.35
2023-04-16T12:12:18.252Z,22.20
2023-04-16T12:14:45.114Z,22.32
2023-04-16T12:17:11.935Z,22.43
2023-04-16T12:19:38.723Z,22.43
2023-04-16T12:22:05.455Z,22.52
2023-04-16T12:24:32.187Z,22.59
2023-04-16T12:27:02.915Z,22.65
2023-04-16T12:29:29.777Z,22.72
2023-04-16T12:31:56.518Z,22.79
2023-04-16T12:34:29.113Z,22.88
2023-04-16T12:37:10.486Z,22.77
2023-04-16T12:39:37.231Z,20.50
2023-04-16T12:42:05.787Z,19.33
2023-04-16T12:44:32.613Z,19.80
2023-04-16T12:46:59.379Z,20.51
2023-04-16T12:49:26.207Z,21.10
2023-04-16T12:51:53.040Z,21.56
2023-04-16T12:54:19.815Z,21.76
2023-04-16T12:56:46.661Z,22.04
2023-04-16T12:59:13.480Z,22.13
2023-04-16T13:01:40.425Z,22.15
2023-04-16T13:04:07.711Z,22.29
2023-04-16T13:06:36.800Z,22.41
2023-04-16T13:09:04.576Z,22.44
2023-04-16T13:11:31.319Z,22.55
2023-04-16T13:13:58.249Z,22.57
2023-04-16T13:16:25.064Z,22.66
2023-04-16T13:18:51.863Z,22.69
2023-04-16T13:21:18.657Z,22.70
2023-04-16T13:23:45.598Z,22.70
2023-04-16T13:26:14.968Z,22.87
2023-04-16T13:28:41.753Z,22.81
2023-04-16T13:31:08.541Z,22.91
2023-04-16T13:33:35.376Z,21.30
2023-04-16T13:36:02.118Z,19.81
2023-04-16T13:38:28.870Z,18.93
2023-04-16T13:40:55.662Z,20.36
2023-04-16T13:43:22.432Z,21.04
2023-04-16T13:45:49.180Z,21.43
2023-04-16T13:48:17.645Z,21.65
2023-04-16T13:50:44.480Z,21.87
2023-04-16T13:53:11.430Z,22.01
2023-04-16T13:55:38.290Z,22.18
2023-04-16T13:58:07.036Z,22.28
2023-04-16T14:00:33.812Z,22.40
2023-04-16T14:03:00.824Z,22.31
2023-04-16T14:05:27.738Z,22.39
2023-04-16T14:07:54.481Z,22.49
2023-04-16T14:10:21.265Z,22.71
2023-04-16T14:12:48.054Z,22.61
2023-04-16T14:15:15.038Z,22.72
2023-04-16T14:17:42.685Z,22.71
2023-04-16T14:20:09.631Z,22.73
2023-04-16T14:22:36.498Z,22.79
2023-04-16T14:25:03.341Z,22.81
2023-04-16T14:27:30.196Z,21.45
2023-04-16T14:29:57.494Z,19.54
2023-04-16T14:32:24.269Z,18.78
2023-04-16T14:34:51.044Z,20.15
2023-04-16T14:37:17.805Z,20.72
2023-04-16T14:39:44.579Z,21.37
2023-04-16T14:42:11.385Z,21.63
2023-04-16T14:44:38.176Z,21.80
2023-04-16T14:47:04.969Z,21.89
2023-04-16T14:49:31.829Z,22.08
2023-04-16T14:51:58.767Z,22.20
2023-04-16T14:54:26.353Z,22.26
2023-04-16T14:56:53.116Z,22.25
2023-04-16T14:59:20.130Z,22.51
2023-04-16T15:01:47.030Z,22.58
2023-04-16T15:04:13.973Z,22.51
2023-04-16T15:06:42.005Z,22.56
2023-04-16T15:09:09.430Z,22.63
2023-04-16T15:11:36.454Z,22.71
2023-04-16T15:14:03.200Z,22.78
2023-04-16T15:16:30.053Z,22.79
2023-04-16T15:18:56.879Z,22.76
2023-04-16T15:21:23.611Z,21.92
2023-04-16T15:23:50.348Z,19.63
2023-04-16T15:26:17.327Z,18.61
2023-04-16T15:28:44.086Z,20.19
2023-04-16T15:31:10.929Z,20.82
2023-04-16T15:33:37.731Z,21.31
2023-04-16T15:36:04.483Z,21.68
2023-04-16T15:38:31.221Z,21.83
2023-04-16T15:40:58.412Z,22.05
2023-04-16T15:43:25.333Z,22.07
2023-04-16T15:45:52.201Z,22.14
2023-04-16T15:48:18.978Z,22.21
2023-04-16T15:50:46.150Z,22.29
2023-04-16T15:53:12.945Z,22.48
2023-04-16T15:55:39.768Z,22.62
2023-04-16T15:58:06.578Z,22.56
2023-04-16T16:00:33.329Z,22.63
2023-04-16T16:03:00.736Z,22.68
2023-04-16T16:05:27.544Z,22.74
2023-04-16T16:07:54.292Z,22.78
2023-04-16T16:10:21.303Z,22.89
2023-04-16T16:12:48.066Z,22.88
2023-04-16T16:15:15.126Z,22.43
2023-04-16T16:17:41.997Z,19.97
2023-04-16T16:20:10.453Z,18.54
2023-04-16T16:22:38.057Z,19.83
2023-04-16T16:25:05.178Z,20.61
2023-04-16T16:27:31.952Z,21.21
2023-04-16T16:30:00.703Z,21.44
2023-04-16T16:32:27.572Z,21.86
2023-04-16T16:34:54.346Z,21.93
2023-04-16T16:37:21.088Z,22.06
2023-04-16T16:39:47.895Z,22.08
2023-04-16T16:42:18.548Z,22.10
2023-04-16T16:44:47.278Z,22.22
2023-04-16T16:47:14.127Z,22.25
2023-04-16T16:49:40.918Z,22.43
2023-04-16T16:52:07.663Z,22.44
2023-04-16T16:54:34.445Z,22.47
2023-04-16T16:57:02.561Z,22.58
2023-04-16T16:59:29.716Z,22.74
2023-04-16T17:01:56.565Z,22.78
2023-04-16T17:04:23.588Z,22.82
2023-04-16T17:06:50.685Z,22.80
2023-04-16T17:09:17.651Z,22.85
2023-04-16T17:11:44.395Z,22.90
2023-04-16T17:14:11.278Z,21.23
2023-04-16T17:16:38.145Z,19.22
2023-04-16T17:19:05.225Z,18.93
2023-04-16T17:21:35.012Z,20.43
2023-04-16T17:24:01.938Z,21.05
2023-04-16T17:26:28.928Z,21.46
2023-04-16T17:28:57.428Z,21.71
2023-04-16T17:31:26.309Z,21.85
2023-04-16T17:33:53.745Z,21.92
2023-04-16T17:36:22.714Z,22.14
2023-04-16T17:38:50.500Z,22.17
2023-04-16T17:41:17.230Z,22.36
2023-04-16T17:43:43.980Z,22.26
2023-04-16T17:46:11.693Z,22.49
2023-04-16T17:48:38.566Z,22.56
2023-04-16T17:51:05.435Z,22.59
2023-04-16T17:53:32.195Z,22.57
2023-04-16T17:55:58.976Z,22.82
2023-04-16T17:58:26.464Z,22.71
2023-04-16T18:00:53.254Z,22.93
2023-04-16T18:03:21.943Z,22.79
2023-04-16T18:05:49.037Z,22.93
2023-04-16T18:08:16.145Z,22.10
2023-04-16T18:10:42.903Z,19.96
2023-04-16T18:13:09.644Z,18.83
2023-04-16T18:15:37.042Z,20.08
2023-04-16T18:18:03.837Z,20.78
2023-04-16T18:20:30.735Z,21.23
2023-04-16T18:22:57.618Z,21.74
2023-04-16T18:25:33.578Z,21.89
2023-04-16T18:28:02.021Z,21.98
2023-04-16T18:30:28.939Z,22.25
2023-04-16T18:33:25.291Z,22.16
2023-04-16T18:35:42.502Z,22.22
2023-04-16T18:38:09.292Z,22.25
2023-04-16T18:40:36.087Z,22.39
2023-04-16T18:43:02.858Z,22.49
2023-04-16T18:45:29.596Z,22.58
2023-04-16T18:47:59.177Z,22.57
2023-04-16T18:50:26.042Z,22.72
2023-04-16T18:52:52.843Z,22.65
2023-04-16T18:55:19.966Z,22.85
2023-04-16T18:57:46.733Z,22.90
2023-04-16T19:00:13.704Z,22.88
2023-04-16T19:02:40.686Z,21.98
2023-04-16T19:05:08.135Z,19.97
2023-04-16T19:07:35.242Z,18.66
2023-04-16T19:10:05.120Z,20.17
2023-04-16T19:12:31.887Z,21.02
2023-04-16T19:14:58.645Z,21.32
2023-04-16T19:17:25.517Z,21.66
2023-04-16T19:19:52.354Z,21.80
2023-04-16T19:22:19.083Z,21.95
2023-04-16T19:24:46.145Z,22.18
2023-04-16T19:27:12.916Z,22.18
2023-04-16T19:29:40.743Z,22.26
2023-04-16T19:32:07.541Z,22.37
2023-04-16T19:34:34.302Z,22.37
2023-04-16T19:37:01.137Z,22.46
2023-04-16T19:39:28.069Z,22.59
2023-04-16T19:41:54.835Z,22.59
2023-04-16T19:44:23.021Z,22.69
2023-04-16T19:46:49.783Z,22.68
2023-04-16T19:49:16.558Z,22.76
2023-04-16T19:51:43.308Z,22.85
2023-04-16T19:54:10.123Z,22.95
2023-04-16T19:56:36.883Z,22.27
2023-04-16T19:59:03.656Z,20.10
2023-04-16T20:01:33.534Z,18.58
2023-04-16T20:04:00.434Z,19.87
2023-04-16T20:06:27.680Z,20.71
2023-04-16T20:08:54.676Z,21.31
2023-04-16T20:11:21.456Z,21.57
2023-04-16T20:13:48.281Z,21.74
2023-04-16T20:16:15.118Z,21.92
2023-04-16T20:18:42.172Z,21.92
2023-04-16T20:21:08.960Z,22.15
2023-04-16T20:23:35.699Z,22.21
2023-04-16T20:26:02.491Z,22.19
2023-04-16T20:28:29.288Z,22.26
2023-04-16T20:30:56.114Z,22.49
2023-04-16T20:33:22.936Z,22.40
2023-04-16T20:35:51.914Z,22.53
2023-04-16T20:38:23.680Z,22.64
2023-04-16T20:40:57.959Z,22.78
2023-04-16T20:43:25.960Z,22.80
2023-04-16T20:45:52.809Z,22.76
2023-04-16T20:48:19.648Z,22.77
2023-04-16T20:50:46.476Z,22.89
2023-04-16T20:53:13.250Z,22.88
2023-04-16T20:55:40.181Z,22.43
2023-04-16T20:58:06.977Z,19.51
2023-04-16T21:00:33.931Z,18.07
2023-04-16T21:03:00.988Z,19.66
2023-04-16T21:05:29.880Z,20.68
2023-04-16T21:07:56.646Z,21.24
2023-04-16T21:10:23.421Z,21.42
2023-04-16T21:12:50.204Z,21.63
2023-04-16T21:15:16.960Z,21.87
2023-04-16T21:17:43.753Z,21.93
2023-04-16T21:20:13.303Z,22.11
2023-04-16T21:22:40.108Z,22.08
2023-04-16T21:25:06.955Z,22.28
2023-04-16T21:27:33.740Z,22.36
2023-04-16T21:30:00.696Z,22.26
2023-04-16T21:32:27.476Z,22.51
2023-04-16T21:34:54.274Z,22.47
2023-04-16T21:37:21.082Z,22.62
2023-04-16T21:39:47.894Z,22.77
2023-04-16T21:42:14.655Z,22.72
2023-04-16T21:44:41.406Z,22.86
2023-04-16T21:47:08.327Z,22.96
2023-04-16T21:49:35.095Z,22.99
2023-04-16T21:52:02.256Z,22.96
2023-04-16T21:54:29.170Z,22.86
2023-04-16T21:56:57.076Z,21.95
2023-04-16T21:59:23.822Z,19.37
2023-04-16T22:01:50.604Z,18.09
2023-04-16T22:04:17.722Z,19.81
2023-04-16T22:06:46.129Z,20.79
2023-04-16T22:09:13.188Z,21.29
2023-04-16T22:11:40.623Z,21.50
2023-04-16T22:14:08.209Z,21.79
2023-04-16T22:16:35.808Z,21.87
2023-04-16T22:19:02.702Z,22.04
2023-04-16T22:21:29.456Z,22.09
2023-04-16T22:23:56.220Z,22.19
2023-04-16T22:26:23.001Z,22.24
2023-04-16T22:28:49.749Z,22.28
2023-04-16T22:31:16.630Z,22.36
2023-04-16T22:33:43.416Z,22.40
2023-04-16T22:36:10.274Z,22.41
2023-04-16T22:38:38.613Z,22.57
2023-04-16T22:41:05.426Z,22.54
2023-04-16T22:43:32.194Z,22.59
2023-04-16T22:45:58.954Z,22.72
2023-04-16T22:48:25.759Z,22.76
2023-04-16T22:50:52.491Z,22.75
2023-04-16T22:53:19.230Z,22.79
2023-04-16T22:55:46.064Z,22.86
2023-04-16T22:58:12.812Z,22.48
2023-04-16T23:00:39.632Z,19.54
2023-04-16T23:03:06.514Z,18.27
2023-04-16T23:05:34.427Z,19.67
2023-04-16T23:08:01.175Z,20.37
2023-04-16T23:10:27.953Z,21.13
2023-04-16T23:12:54.681Z,21.47
2023-04-16T23:15:21.423Z,21.64
2023-04-16T23:17:48.226Z,21.69
2023-04-16T23:20:15.490Z,21.94
2023-04-16T23:22:42.220Z,22.16
2023-04-16T23:25:09.039Z,22.13
2023-04-16T23:27:35.808Z,22.17
2023-04-16T23:30:02.967Z,22.13
2023-04-16T23:32:29.771Z,22.30
2023-04-16T23:34:56.627Z,22.32
2023-04-16T23:37:23.391Z,22.45
2023-04-16T23:39:50.178Z,22.53
2023-04-16T23:42:17.259Z,22.52
2023-04-16T23:44:44.006Z,22.56
2023-04-16T23:47:10.769Z,22.67
2023-04-16T23:49:37.569Z,22.72
2023-04-16T23:52:04.364Z,22.75
2023-04-16T23:54:31.201Z,22.79
2023-04-16T23:56:57.954Z,22.81
2023-04-16T23:59:24.750Z,22.87
